Latest Weather Observations for Dunalley

IDT60801

Issued at 11:35 pm EDT Monday 20 October 2014 (issued every 30 minutes, with the page automatically refreshed every 10 minutes)

About weather observations | Map of weather stations | Latest weather observations for TAS | Other Formats
Station Details ID: 094254 Name: DUNALLEY (STROUD POINT) Lat: -42.90 Lon: 147.79 Height: 12.43 m
Data from the previous 72 hours. | See also: Recent months at Dunalley
Date/Time
EDT
Temp
°C
App
Temp
°C
Dew
Point
Rel
Hum
%
Delta-T
°C
Wind Press
QNH
hPa
Press
MSL
hPa
Rain
since 9 am
mm
Dir
 
Spd
km/h
Gust
km/h
Spd
kts
Gust
kts
20/11:30pm 9.4 7.5 5.0 74 2.0 SE 4 6 2 3 1035.3 1035.3 0.0
20/11:00pm 9.6 7.7 5.0 73 2.0 SE 4 6 2 3 1035.5 1035.5 0.0
20/10:30pm 10.0 8.7 4.2 67 2.6 CALM 0 0 0 0 1035.8 1035.8 0.0
20/10:00pm 10.0 8.0 4.4 68 2.5 SE 4 6 2 3 1035.7 1035.7 0.0
20/09:30pm 10.0 7.6 4.4 68 2.5 SE 6 9 3 5 1035.6 1035.6 0.0
20/09:00pm 10.2 7.0 5.0 70 2.3 SE 11 15 6 8 1035.5 1035.5 0.0
20/08:30pm 10.4 6.5 5.2 70 2.4 SE 15 19 8 10 1035.2 1035.2 0.0
20/08:00pm 10.6 6.7 5.4 70 2.4 SSE 15 20 8 11 1034.9 1034.9 0.0
20/07:30pm 10.8 7.2 4.9 67 2.7 SSE 13 17 7 9 1034.6 1034.6 0.0
20/07:00pm 11.5 7.8 4.3 61 3.2 SSE 13 19 7 10 1034.3 1034.3 0.0
20/06:30pm 11.7 8.3 4.0 59 3.4 SSE 11 17 6 9 1034.0 1034.0 0.0
20/06:00pm 12.5 9.2 4.7 59 3.5 SSE 11 15 6 8 1033.7 1033.7 0.0
20/05:30pm 12.7 9.3 4.2 56 3.9 SSE 11 15 6 8 1033.6 1033.6 0.0
20/05:00pm 13.1 9.1 4.8 57 3.8 S 15 20 8 11 1033.6 1033.6 0.0
20/04:30pm 12.9 9.5 4.1 55 4.0 S 11 15 6 8 1033.5 1033.5 0.0
20/04:00pm 13.1 10.6 3.5 52 4.3 SSE 6 9 3 5 1033.6 1033.6 0.0
20/03:30pm 12.9 10.1 3.0 51 4.4 SSE 7 9 4 5 1033.8 1033.8 0.0
20/03:00pm 13.0 10.3 2.8 50 4.4 SSE 6 9 3 5 1033.9 1033.9 0.0
20/02:30pm 13.2 9.8 3.8 53 4.2 S 11 19 6 10 1034.0 1034.0 0.0
20/02:00pm 12.7 8.9 2.0 48 4.6 S 11 15 6 8 1034.1 1034.1 0.0
20/01:30pm 12.4 8.1 3.4 54 4.0 S 15 22 8 12 1034.1 1034.1 0.0
20/01:00pm 12.5 7.7 2.7 51 4.2 SW 17 22 9 12 1034.2 1034.2 0.0
20/12:30pm 12.4 7.9 2.3 50 4.4 WSW 15 22 8 12 1034.2 1034.2 0.0
20/12:00pm 12.1 6.8 2.8 53 4.0 SW 20 28 11 15 1034.3 1034.3 0.0
20/11:30am 11.5 6.2 2.0 52 4.1 SW 19 24 10 13 1034.3 1034.3 0.0
20/11:00am 11.5 6.3 2.3 53 3.9 WSW 19 26 10 14 1034.2 1034.2 0.0
20/10:30am 10.9 5.2 2.7 57 3.5 SW 22 30 12 16 1034.1 1034.1 0.0
20/10:00am 10.5 5.3 3.8 63 2.9 WSW 20 33 11 18 1034.0 1034.0 0.0
20/09:30am 9.8 3.4 3.1 63 2.9 W 26 33 14 18 1033.6 1033.6 0.0
20/09:00am 9.4 4.3 4.0 69 2.3 W 20 37 11 20 1033.2 1033.2 6.0
20/08:30am 9.8 5.2 3.5 65 2.7 WNW 17 20 9 11 1033.0 1033.0 6.0
20/08:00am 8.7 4.6 4.1 73 2.0 SSW 15 19 8 10 1032.7 1032.7 6.0
20/07:30am 7.6 4.2 3.8 77 1.6 SSW 11 20 6 11 1032.5 1032.5 6.0
20/07:00am 8.0 1.5 2.9 70 2.1 SW 26 41 14 22 1032.1 1032.1 6.0
20/06:30am 8.4 1.8 2.0 64 2.7 W 26 33 14 18 1031.5 1031.5 6.0
20/06:00am 8.5 2.0 2.7 67 2.4 W 26 32 14 17 1030.9 1030.9 6.0
20/05:30am 8.3 1.1 3.2 70 2.2 WSW 30 37 16 20 1030.4 1030.4 6.0
20/05:00am 8.6 1.0 4.0 73 2.0 WSW 33 43 18 23 1030.0 1030.0 6.0
20/04:47am 8.4 -0.8 3.5 71 2.1 W 41 46 22 25 1029.6 1029.7 6.0
20/04:30am 8.9 1.0 1.3 59 3.1 SW 32 41 17 22 1029.4 1029.5 6.0
20/04:00am 8.8 1.3 1.5 60 3.0 SW 30 41 16 22 1029.2 1029.3 6.0
20/03:30am 8.8 1.2 2.6 65 2.6 SW 32 37 17 20 1028.5 1028.6 6.0
20/03:00am 8.7 1.1 4.1 73 2.0 WSW 33 41 18 22 1028.4 1028.5 6.0
20/02:30am 8.1 0.2 4.5 78 1.6 WSW 35 41 19 22 1027.9 1028.0 6.0
20/02:00am 7.9 0.4 4.7 80 1.4 WSW 33 41 18 22 1027.8 1027.9 6.0
20/01:30am 9.2 1.6 3.8 69 2.4 SW 33 52 18 28 1027.3 1027.4 5.8
20/01:00am 8.8 1.7 3.6 70 2.2 SW 30 37 16 20 1027.3 1027.4 5.8
20/12:30am 8.9 0.5 3.7 70 2.3 SW 37 54 20 29 1026.9 1027.0 5.8
20/12:00am 8.4 0.3 3.3 70 2.2 SW 35 43 19 23 1026.5 1026.6 5.8
 
Date/Time
EDT
Temp
°C
App
Temp
°C
Dew
Point
Rel
Hum
%
Delta-T
°C
Wind Press
QNH
hPa
Press
MSL
hPa
Rain
since 9 am
mm
Dir
 
Spd
km/h
Gust
km/h
Spd
kts
Gust
kts
19/11:30pm 7.5 0.2 4.5 81 1.3 WSW 32 37 17 20 1026.4 1026.5 5.8
19/11:10pm 7.5 -2.3 5.1 85 1.1 SW 46 57 25 31 1026.2 1026.3 5.8
19/11:06pm 7.3 -6.3 4.6 83 1.2 SW 65 85 35 46 1026.1 1026.2 5.8
19/11:04pm 7.5 -7.0 4.6 82 1.3 SW 70 85 38 46 1025.7 1025.8 5.8
19/11:02pm 8.3 -1.5 5.2 81 1.4 SW 46 69 25 37 1025.7 1025.8 5.8
19/11:00pm 8.6 -0.7 5.2 79 1.5 SW 43 52 23 28 1025.7 1025.8 5.8
19/10:35pm 9.2 1.1 5.4 77 1.7 SW 37 56 20 30 1025.3 1025.3 5.8
19/10:30pm 9.3 1.1 4.5 72 2.1 SW 37 48 20 26 1025.0 1025.0 5.8
19/10:00pm 8.5 -0.2 4.3 75 1.8 SW 39 48 21 26 1024.4 1024.4 5.8
19/09:46pm 9.0 0.1 5.0 76 1.8 SW 41 63 22 34 1024.2 1024.2 5.8
19/09:30pm 10.0 1.8 5.0 71 2.3 SW 37 44 20 24 1023.7 1023.7 5.8
19/09:00pm 9.7 2.6 5.7 76 1.8 SW 32 41 17 22 1023.3 1023.3 5.8
19/08:30pm 9.3 2.1 6.0 80 1.5 SW 33 41 18 22 1022.6 1022.6 5.8
19/08:00pm 9.0 -0.3 6.1 82 1.3 SW 44 59 24 32 1021.6 1021.6 5.8
19/07:30pm 9.1 1.8 7.4 89 0.8 SW 35 43 19 23 1020.6 1020.6 5.6
19/07:00pm 8.9 -1.1 7.8 93 0.5 SSW 50 59 27 32 1019.9 1019.9 5.2
19/06:30pm 9.7 2.7 8.6 93 0.5 SSW 35 43 19 23 1018.8 1018.8 3.4
19/06:00pm 10.7 6.6 8.8 88 0.9 SSW 20 26 11 14 1018.0 1018.0 2.0
19/05:30pm 10.5 6.7 9.1 91 0.7 SSW 19 24 10 13 1017.7 1017.7 1.8
19/05:00pm 10.7 5.6 9.1 90 0.8 SW 26 32 14 17 1017.9 1017.9 1.8
19/04:30pm 10.5 4.5 8.8 89 0.8 SW 30 35 16 19 1017.4 1017.4 1.2
19/04:00pm 10.7 2.8 9.3 91 0.7 SSW 41 52 22 28 1016.4 1016.4 0.8
19/03:30pm 11.3 3.7 9.0 86 1.1 SSW 39 48 21 26 1016.1 1016.1 0.4
19/03:00pm 11.5 4.8 9.6 88 1.0 SSW 35 43 19 23 1016.5 1016.5 0.0
19/02:30pm 12.7 6.6 10.4 86 1.2 SSW 33 43 18 23 1016.1 1016.1 0.0
19/02:17pm 13.5 6.2 10.3 81 1.7 S 39 43 21 23 1015.4 1015.4 0.0
19/02:00pm 15.0 8.6 9.4 69 2.9 SW 33 41 18 22 1015.5 1015.5 0.0
19/01:30pm 15.5 8.7 9.2 66 3.2 SW 35 43 19 23 1015.3 1015.3 0.0
19/01:00pm 15.9 9.8 9.8 67 3.2 SW 32 37 17 20 1015.3 1015.3 0.0
19/12:30pm 17.2 13.1 10.1 63 3.8 WSW 22 26 12 14 1014.9 1014.9 0.0
19/12:00pm 17.1 13.7 10.7 66 3.4 WSW 19 20 10 11 1014.9 1014.9 0.0
19/11:30am 17.9 12.2 9.8 59 4.3 WSW 30 37 16 20 1014.9 1014.9 0.0
19/11:28am 18.2 11.9 9.0 55 4.8 WSW 32 37 17 20 1014.8 1014.8 0.0
19/11:00am 17.0 15.2 10.8 67 3.3 SW 11 13 6 7 1014.9 1014.9 0.0
19/10:30am 16.9 14.1 11.2 69 3.1 WSW 17 19 9 10 1015.2 1015.2 0.0
19/10:00am 18.4 14.8 10.5 60 4.2 W 20 24 11 13 1014.9 1014.9 0.0
19/09:30am 19.0 15.3 9.5 54 5.0 W 19 22 10 12 1014.8 1014.8 0.0
19/09:00am 17.3 14.0 9.5 60 4.1 W 17 22 9 12 1014.2 1014.2 0.0
19/08:30am 18.0 15.3 9.1 56 4.6 W 13 20 7 11 1014.1 1014.1 0.0
19/08:00am 16.1 13.7 8.6 61 3.8 W 11 13 6 7 1014.0 1014.0 0.0
19/07:30am 16.6 12.4 7.3 54 4.6 WNW 19 24 10 13 1014.1 1014.1 0.0
19/07:00am 15.3 11.8 7.1 58 4.0 NNW 15 19 8 10 1013.2 1013.2 0.0
19/06:30am 15.1 11.5 6.7 57 4.1 NNW 15 20 8 11 1012.6 1012.6 0.0
19/06:00am 15.0 12.5 6.6 57 4.1 N 9 15 5 8 1012.4 1012.4 0.0
19/05:30am 15.8 12.1 6.3 53 4.6 N 15 24 8 13 1011.7 1011.7 0.0
19/05:00am 15.5 10.9 6.5 55 4.4 N 20 26 11 14 1011.7 1011.7 0.0
19/04:30am 15.3 10.3 6.6 56 4.2 N 22 30 12 16 1012.3 1012.3 0.0
19/04:00am 15.1 9.3 6.4 56 4.2 N 26 35 14 19 1012.7 1012.7 0.0
19/03:30am 15.2 9.0 6.2 55 4.3 N 28 39 15 21 1013.1 1013.1 0.0
19/03:00am 15.7 10.6 5.9 52 4.7 N 22 39 12 21 1013.3 1013.3 0.0
19/02:30am 16.9 11.2 4.9 45 5.7 N 24 35 13 19 1013.4 1013.4 0.0
19/02:00am 15.8 12.9 4.8 48 5.2 NE 9 15 5 8 1013.9 1013.9 0.0
19/01:30am 15.2 11.6 6.7 57 4.1 NE 15 20 8 11 1014.6 1014.6 0.0
19/01:00am 15.1 11.4 6.1 55 4.3 NNE 15 22 8 12 1015.0 1015.0 0.0
19/12:30am 15.4 12.4 5.9 53 4.6 N 11 15 6 8 1015.4 1015.4 0.0
19/12:00am 14.9 11.3 6.7 58 4.0 N 15 22 8 12 1015.6 1015.6 0.0
 
Date/Time
EDT
Temp
°C
App
Temp
°C
Dew
Point
Rel
Hum
%
Delta-T
°C
Wind Press
QNH
hPa
Press
MSL
hPa
Rain
since 9 am
mm
Dir
 
Spd
km/h
Gust
km/h
Spd
kts
Gust
kts
18/11:30pm 15.2 10.9 7.0 58 4.0 N 19 32 10 17 1016.0 1016.0 0.0
18/11:00pm 14.1 11.4 7.2 63 3.4 N 11 19 6 10 1016.3 1016.3 0.0
18/10:30pm 14.9 10.0 7.0 59 3.9 N 22 32 12 17 1016.3 1016.3 0.0
18/10:00pm 15.0 8.6 6.8 58 4.0 N 30 43 16 23 1016.7 1016.7 0.0
18/09:42pm 15.2 8.2 6.7 57 4.1 N 33 52 18 28 1016.9 1016.9 0.0
18/09:30pm 15.3 8.9 6.8 57 4.2 N 30 43 16 23 1017.1 1017.1 0.0
18/09:00pm 15.9 10.7 7.1 56 4.3 N 24 33 13 18 1016.8 1016.8 0.0
18/08:30pm 16.3 10.2 8.3 59 4.1 ENE 30 37 16 20 1016.9 1016.9 0.0
18/08:00pm 16.3 10.6 8.5 60 4.0 ENE 28 35 15 19 1017.1 1017.1 0.0
18/07:30pm 16.3 11.0 8.5 60 4.0 ENE 26 35 14 19 1017.2 1017.2 0.0
18/07:00pm 17.7 14.1 6.6 48 5.5 N 15 22 8 12 1018.1 1018.1 0.0
18/06:30pm 17.6 14.5 7.1 50 5.2 N 13 19 7 10 1018.6 1018.6 0.0
18/06:00pm 18.5 14.2 7.0 47 5.8 N 19 26 10 14 1018.4 1018.4 0.0
18/05:30pm 18.9 14.6 7.7 48 5.7 N 20 28 11 15 1018.1 1018.1 0.0
18/05:00pm 19.1 15.4 7.8 48 5.8 N 17 28 9 15 1018.2 1018.2 0.0
18/04:30pm 19.6 15.5 8.6 49 5.7 N 20 28 11 15 1018.3 1018.3 0.0
18/04:00pm 19.9 16.5 7.6 45 6.3 N 15 26 8 14 1018.3 1018.3 0.0
18/03:30pm 19.7 15.8 7.1 44 6.4 N 17 24 9 13 1018.7 1018.7 0.0
18/03:00pm 19.9 15.4 5.9 40 6.9 N 19 32 10 17 1019.2 1019.2 0.0
18/02:30pm 21.2 16.1 5.9 37 7.7 N 22 30 12 16 1019.7 1019.7 0.0
18/02:00pm 21.4 17.0 6.5 38 7.5 N 19 32 10 17 1019.9 1019.9 0.0
18/01:30pm 19.7 15.5 7.4 45 6.3 NNE 19 28 10 15 1020.0 1020.0 0.0
18/01:00pm 20.8 15.6 7.1 41 7.0 NNE 24 33 13 18 1020.1 1020.1 0.0
18/12:30pm 20.3 16.2 8.0 45 6.4 N 19 28 10 15 1020.9 1020.9 0.0
18/12:00pm 19.6 15.2 7.4 45 6.2 NNE 20 28 11 15 1022.0 1022.0 0.0
18/11:30am 18.4 14.4 8.1 51 5.3 NE 19 26 10 14 1022.6 1022.6 0.0
18/11:00am 17.9 13.9 6.7 48 5.5 NNE 17 26 9 14 1022.5 1022.5 0.0
18/10:30am 16.8 12.4 6.6 51 5.0 N 19 28 10 15 1023.4 1023.4 0.0
18/10:00am 16.2 13.1 7.2 55 4.4 N 13 30 7 16 1023.8 1023.8 0.0
18/09:30am 14.1 8.8 8.5 69 2.8 ENE 26 32 14 17 1024.1 1024.1 0.0
18/09:00am 13.4 9.2 7.6 68 2.8 NE 19 24 10 13 1024.6 1024.6 0.0
18/08:30am 12.0 8.4 6.9 71 2.4 ENE 15 20 8 11 1025.0 1025.0 0.0
18/08:00am 11.2 7.9 6.5 73 2.2 NE 13 20 7 11 1025.4 1025.5 0.0
18/07:30am 11.1 8.8 5.6 69 2.5 ENE 7 11 4 6 1025.6 1025.7 0.0
18/07:00am 10.2 8.1 5.8 74 2.0 ENE 6 9 3 5 1025.5 1025.6 0.0
18/06:30am 9.8 7.6 6.0 77 1.8 ENE 7 13 4 7 1025.4 1025.5 0.0
18/06:00am 9.5 7.8 6.0 79 1.6 NE 4 11 2 6 1025.0 1025.0 0.0
18/05:30am 9.7 7.4 5.9 77 1.7 NE 7 11 4 6 1025.1 1025.1 0.0
18/05:00am 9.9 6.5 6.1 77 1.7 NNE 13 19 7 10 1025.3 1025.3 0.0
18/04:30am 9.1 6.8 5.7 79 1.5 NNE 7 13 4 7 1025.6 1025.7 0.0
18/04:00am 9.0 6.8 5.2 77 1.7 NNE 6 7 3 4 1025.9 1026.0 0.0
18/03:30am 9.7 6.9 5.3 74 2.0 NNE 9 15 5 8 1026.0 1026.1 0.0
18/03:00am 10.1 7.8 5.7 74 2.0 NNE 7 11 4 6 1026.2 1026.3 0.0
18/02:30am 10.6 7.6 6.0 73 2.1 NNE 11 17 6 9 1026.1 1026.2 0.0
18/02:00am 11.0 7.6 5.7 70 2.4 NNE 13 17 7 9 1026.5 1026.6 0.0
18/01:30am 11.0 7.1 5.5 69 2.5 NNE 15 22 8 12 1026.6 1026.7 0.0
18/01:00am 11.1 5.9 5.6 69 2.5 NNE 22 30 12 16 1026.7 1026.8 0.0
18/12:30am 10.9 7.5 5.9 71 2.3 NNE 13 19 7 10 1027.0 1027.1 0.0
18/12:00am 10.6 6.8 6.0 73 2.1 NE 15 19 8 10 1027.1 1027.2 0.0

Other Formats:

Comma delimited format used in spreadsheet applications
http://www.bom.gov.au/fwo/IDT60801/IDT60801.94951.axf

JavaScript Object Notation format (JSON) in row-major order
http://www.bom.gov.au/fwo/IDT60801/IDT60801.94951.json